sensor_id;sensor_type;location;lat;lon;timestamp;pressure;altitude;pressure_sealevel;temperature
76007;BMP280;64699;0.000;0.000;2023-07-13T20:04:27;100410.44;;;20.84
76007;BMP280;64699;0.000;0.000;2023-07-13T20:06:52;100430.31;;;20.83
76007;BMP280;64699;0.000;0.000;2023-07-13T20:09:21;100421.19;;;21.03
76007;BMP280;64699;0.000;0.000;2023-07-13T20:11:48;100430.41;;;21.20
76007;BMP280;64699;0.000;0.000;2023-07-13T20:14:20;100437.44;;;21.29
76007;BMP280;64699;0.000;0.000;2023-07-13T20:16:46;100437.78;;;21.33
76007;BMP280;64699;0.000;0.000;2023-07-13T20:19:12;100431.19;;;21.36
76007;BMP280;64699;0.000;0.000;2023-07-13T20:21:37;100435.41;;;21.37
76007;BMP280;64699;0.000;0.000;2023-07-13T20:24:10;100432.28;;;21.40
76007;BMP280;64699;0.000;0.000;2023-07-13T20:26:36;100427.50;;;21.41
76007;BMP280;64699;0.000;0.000;2023-07-13T20:29:01;100429.00;;;21.42
76007;BMP280;64699;0.000;0.000;2023-07-13T20:31:28;100436.00;;;21.43
76007;BMP280;64699;0.000;0.000;2023-07-13T20:33:55;100439.31;;;21.49
76007;BMP280;64699;0.000;0.000;2023-07-13T20:36:21;100448.56;;;21.59
76007;BMP280;64699;0.000;0.000;2023-07-13T20:38:46;100442.06;;;21.63
76007;BMP280;64699;0.000;0.000;2023-07-13T20:41:11;100442.06;;;21.63
76007;BMP280;64699;0.000;0.000;2023-07-13T20:43:37;100438.03;;;21.64
76007;BMP280;64699;0.000;0.000;2023-07-13T20:46:04;100433.75;;;21.63
76007;BMP280;64699;0.000;0.000;2023-07-13T20:48:36;100431.75;;;21.64
76007;BMP280;64699;0.000;0.000;2023-07-13T20:51:02;100433.75;;;21.63
76007;BMP280;64699;0.000;0.000;2023-07-13T20:53:27;100439.28;;;21.63
76007;BMP280;64699;0.000;0.000;2023-07-13T20:55:52;100448.91;;;21.62
76007;BMP280;64699;0.000;0.000;2023-07-13T20:58:18;100449.09;;;21.64
76007;BMP280;64699;0.000;0.000;2023-07-13T21:00:43;100453.34;;;21.65
76007;BMP280;64699;0.000;0.000;2023-07-13T21:03:16;100456.63;;;21.64
76007;BMP280;64699;0.000;0.000;2023-07-13T21:05:42;100461.41;;;21.63
76007;BMP280;64699;0.000;0.000;2023-07-13T21:08:11;100459.53;;;21.36
76007;BMP280;64699;0.000;0.000;2023-07-13T21:10:36;100463.91;;;21.17
76007;BMP280;64699;0.000;0.000;2023-07-13T21:13:02;100451.94;;;21.07
76007;BMP280;64699;0.000;0.000;2023-07-13T21:15:28;100463.50;;;21.05
76007;BMP280;64699;0.000;0.000;2023-07-13T21:17:55;100449.59;;;21.26
76007;BMP280;64699;0.000;0.000;2023-07-13T21:20:22;100457.16;;;21.40
76007;BMP280;64699;0.000;0.000;2023-07-13T21:22:48;100464.19;;;21.49
76007;BMP280;64699;0.000;0.000;2023-07-13T21:25:14;100452.22;;;21.54
76007;BMP280;64699;0.000;0.000;2023-07-13T21:27:39;100445.59;;;21.57
76007;BMP280;64699;0.000;0.000;2023-07-13T21:30:11;100457.56;;;21.59
76007;BMP280;64699;0.000;0.000;2023-07-13T21:32:36;100459.78;;;21.60
76007;BMP280;64699;0.000;0.000;2023-07-13T21:35:02;100460.53;;;21.61
76007;BMP280;64699;0.000;0.000;2023-07-13T21:37:31;100464.00;;;21.61
76007;BMP280;64699;0.000;0.000;2023-07-13T21:39:56;100459.25;;;21.62
76007;BMP280;64699;0.000;0.000;2023-07-13T21:42:21;100465.50;;;21.62
76007;BMP280;64699;0.000;0.000;2023-07-13T21:44:46;100468.25;;;21.62
76007;BMP280;64699;0.000;0.000;2023-07-13T21:47:12;100466.94;;;21.63
76007;BMP280;64699;0.000;0.000;2023-07-13T21:49:37;100469.19;;;21.65
76007;BMP280;64699;0.000;0.000;2023-07-13T21:52:08;100474.72;;;21.65
76007;BMP280;64699;0.000;0.000;2023-07-13T21:54:35;100476.19;;;21.66
76007;BMP280;64699;0.000;0.000;2023-07-13T21:57:00;100476.19;;;21.66
76007;BMP280;64699;0.000;0.000;2023-07-13T21:59:26;100468.47;;;21.64
76007;BMP280;64699;0.000;0.000;2023-07-13T22:01:52;100464.19;;;21.63
76007;BMP280;64699;0.000;0.000;2023-07-13T22:04:20;100466.22;;;21.63
76007;BMP280;64699;0.000;0.000;2023-07-13T22:06:46;100467.69;;;21.64
76007;BMP280;64699;0.000;0.000;2023-07-13T22:09:16;100464.19;;;21.63
76007;BMP280;64699;0.000;0.000;2023-07-13T22:11:41;100466.94;;;21.63
76007;BMP280;64699;0.000;0.000;2023-07-13T22:14:07;100462.94;;;21.64
76007;BMP280;64699;0.000;0.000;2023-07-13T22:16:32;100462.94;;;21.64
76007;BMP280;64699;0.000;0.000;2023-07-13T22:18:58;100462.16;;;21.64
76007;BMP280;64699;0.000;0.000;2023-07-13T22:21:23;100467.69;;;21.64
76007;BMP280;64699;0.000;0.000;2023-07-13T22:23:49;100463.66;;;21.65
76007;BMP280;64699;0.000;0.000;2023-07-13T22:28:45;100460.16;;;21.64
76007;BMP280;64699;0.000;0.000;2023-07-13T22:31:11;100462.94;;;21.64
76007;BMP280;64699;0.000;0.000;2023-07-13T22:33:36;100457.41;;;21.64
76007;BMP280;64699;0.000;0.000;2023-07-13T22:36:01;100457.41;;;21.64
76007;BMP280;64699;0.000;0.000;2023-07-13T22:38:27;100465.69;;;21.64
76007;BMP280;64699;0.000;0.000;2023-07-13T22:40:55;100461.41;;;21.63
76007;BMP280;64699;0.000;0.000;2023-07-13T22:43:21;100456.63;;;21.64
76007;BMP280;64699;0.000;0.000;2023-07-13T22:45:51;100457.41;;;21.64
76007;BMP280;64699;0.000;0.000;2023-07-13T22:48:19;100460.16;;;21.64
76007;BMP280;64699;0.000;0.000;2023-07-13T22:50:44;100462.94;;;21.64
76007;BMP280;64699;0.000;0.000;2023-07-13T22:53:13;100447.59;;;21.63
76007;BMP280;64699;0.000;0.000;2023-07-13T22:55:39;100454.63;;;21.64
76007;BMP280;64699;0.000;0.000;2023-07-13T22:58:04;100451.88;;;21.64
76007;BMP280;64699;0.000;0.000;2023-07-13T23:00:29;100453.34;;;21.65
76007;BMP280;64699;0.000;0.000;2023-07-13T23:02:55;100457.41;;;21.64
76007;BMP280;64699;0.000;0.000;2023-07-13T23:05:20;100454.63;;;21.64
76007;BMP280;64699;0.000;0.000;2023-07-13T23:07:45;100457.41;;;21.64
76007;BMP280;64699;0.000;0.000;2023-07-13T23:10:15;100457.41;;;21.64
76007;BMP280;64699;0.000;0.000;2023-07-13T23:12:41;100458.13;;;21.65
76007;BMP280;64699;0.000;0.000;2023-07-13T23:15:08;100451.31;;;21.66
76007;BMP280;64699;0.000;0.000;2023-07-13T23:17:33;100452.75;;;21.67
76007;BMP280;64699;0.000;0.000;2023-07-13T23:19:58;100449.09;;;21.64
76007;BMP280;64699;0.000;0.000;2023-07-13T23:22:25;100450.59;;;21.65
76007;BMP280;64699;0.000;0.000;2023-07-13T23:24:50;100440.25;;;21.66
76007;BMP280;64699;0.000;0.000;2023-07-13T23:27:16;100446.53;;;21.66
76007;BMP280;64699;0.000;0.000;2023-07-13T23:29:43;100443.75;;;21.66
76007;BMP280;64699;0.000;0.000;2023-07-13T23:32:11;100447.22;;;21.67
76007;BMP280;64699;0.000;0.000;2023-07-13T23:34:36;100447.22;;;21.67
76007;BMP280;64699;0.000;0.000;2023-07-13T23:37:02;100456.28;;;21.67
76007;BMP280;64699;0.000;0.000;2023-07-13T23:39:28;100453.50;;;21.67
76007;BMP280;64699;0.000;0.000;2023-07-13T23:41:55;100449.28;;;21.66
76007;BMP280;64699;0.000;0.000;2023-07-13T23:44:20;100447.97;;;21.67
76007;BMP280;64699;0.000;0.000;2023-07-13T23:46:47;100450.75;;;21.67
76007;BMP280;64699;0.000;0.000;2023-07-13T23:49:15;100450.00;;;21.67
76007;BMP280;64699;0.000;0.000;2023-07-13T23:51:41;100453.50;;;21.67
76007;BMP280;64699;0.000;0.000;2023-07-13T23:54:10;100444.47;;;21.67
76007;BMP280;64699;0.000;0.000;2023-07-13T23:56:36;100449.28;;;21.66
76007;BMP280;64699;0.000;0.000;2023-07-13T23:59:02;100441.69;;;21.67
